Wendell, Minnesota
Current Conditions -  °F | °C
As of 1:17 PM on Tuesday 27 Jan 2015 (Local Time) from KY63 Reporting Station
Overcast Overcast  
Wind Chill: 19°   Ceiling: 400
Heat Index: 31°   Visibility: 10mi
Dew Point: 30°   Wind: 16mph
Humidity: 97%   Direction: 160°SSE
Pressure: 30.06"   Gusts: 21mph
Location:  46.04°N, 96.1°W
Report Text: KY63 271917Z AUTO 16014G18KT 10SM OVC004 M01/M01 A3006 RMK AO2 T10081012
Loading
Personal Weather Stations






























Interactive Weather Map New forecast layout! Learn more

10-Day Weather Forecast

Advertisements
Track Severe Weather on mobile